createdAt,value
2016-07-23T00:00:13.754Z,1011.26
2016-07-23T00:00:43.774Z,1011.23
2016-07-23T00:01:13.794Z,1011.2
2016-07-23T00:01:43.100Z,1011.21
2016-07-23T00:02:13.826Z,1011.23
2016-07-23T00:02:43.843Z,1011.23
2016-07-23T00:03:13.846Z,1011.23
2016-07-23T00:03:43.869Z,1011.19
2016-07-23T00:04:13.881Z,1011.2
2016-07-23T00:04:43.904Z,1011.19
2016-07-23T00:05:13.908Z,1011.2
2016-07-23T00:05:43.926Z,1011.17
2016-07-23T00:06:13.935Z,1011.17
2016-07-23T00:06:43.963Z,1011.18
2016-07-23T00:07:13.973Z,1011.2
2016-07-23T00:07:44.004Z,1011.2
2016-07-23T00:08:14.006Z,1011.17
2016-07-23T00:08:44.021Z,1011.15
2016-07-23T00:09:13.317Z,1011.19
2016-07-23T00:09:43.336Z,1011.15
2016-07-23T00:10:14.064Z,1011.18
2016-07-23T00:10:44.096Z,1011.18
2016-07-23T00:11:13.382Z,1011.17
2016-07-23T00:11:44.106Z,1011.17
2016-07-23T00:12:14.134Z,1011.18
2016-07-23T00:12:44.140Z,1011.15
2016-07-23T00:13:14.151Z,1011.16
2016-07-23T00:13:44.174Z,1011.18
2016-07-23T00:14:14.196Z,1011.14
2016-07-23T00:14:44.205Z,1011.19
2016-07-23T00:15:14.216Z,1011.18
2016-07-23T00:15:44.233Z,1011.16
2016-07-23T00:16:14.252Z,1011.18
2016-07-23T00:16:43.554Z,1011.17
2016-07-23T00:17:14.273Z,1011.16
2016-07-23T00:17:43.587Z,1011.14
2016-07-23T00:18:14.306Z,1011.15
2016-07-23T00:18:44.321Z,1011.12
2016-07-23T00:19:14.337Z,1011.12
2016-07-23T00:19:44.363Z,1011.18
2016-07-23T00:20:14.366Z,1011.13
2016-07-23T00:20:43.683Z,1011.15
2016-07-23T00:21:14.399Z,1011.11
2016-07-23T00:21:44.414Z,1011.14
2016-07-23T00:22:14.431Z,1011.17
2016-07-23T00:22:43.749Z,1011.12
2016-07-23T00:23:14.455Z,1011.14
2016-07-23T00:23:43.764Z,1011.15
2016-07-23T00:24:14.489Z,1011.14
2016-07-23T00:24:44.505Z,1011.13
2016-07-23T00:25:14.525Z,1011.14
2016-07-23T00:25:44.538Z,1011.15
2016-07-23T00:26:14.557Z,1011.19
2016-07-23T00:26:44.569Z,1011.19
2016-07-23T00:27:14.598Z,1011.19
2016-07-23T00:27:44.604Z,1011.16
2016-07-23T00:28:14.614Z,1011.18
2016-07-23T00:28:43.935Z,1011.21
2016-07-23T00:29:14.648Z,1011.24
2016-07-23T00:29:43.943Z,1011.22
2016-07-23T00:30:14.678Z,1011.27
2016-07-23T00:30:44.707Z,1011.26
2016-07-23T00:31:14.706Z,1011.27
2016-07-23T00:31:44.012Z,1011.31
2016-07-23T00:32:14.745Z,1011.29
2016-07-23T00:32:44.759Z,1011.27
2016-07-23T00:33:14.768Z,1011.28
2016-07-23T00:33:44.786Z,1011.27
2016-07-23T00:34:14.811Z,1011.29
2016-07-23T00:34:44.812Z,1011.27
2016-07-23T00:35:14.843Z,1011.27
2016-07-23T00:35:44.154Z,1011.28
2016-07-23T00:36:14.860Z,1011.28
2016-07-23T00:36:44.887Z,1011.26
2016-07-23T00:37:14.891Z,1011.29
2016-07-23T00:37:44.193Z,1011.31
2016-07-23T00:38:14.924Z,1011.3
2016-07-23T00:38:44.936Z,1011.27
2016-07-23T00:39:14.946Z,1011.22
2016-07-23T00:39:44.964Z,1011.27
2016-07-23T00:40:14.986Z,1011.28
2016-07-23T00:40:44.318Z,1011.28
2016-07-23T00:41:15.026Z,1011.24
2016-07-23T00:41:45.027Z,1011.26
2016-07-23T00:42:15.052Z,1011.24
2016-07-23T00:42:45.083Z,1011.29
2016-07-23T00:43:14.364Z,1011.25
2016-07-23T00:43:44.390Z,1011.24
2016-07-23T00:44:15.108Z,1011.22
2016-07-23T00:44:44.411Z,1011.19
2016-07-23T00:45:15.154Z,1011.2
2016-07-23T00:45:45.161Z,1011.18
2016-07-23T00:46:15.176Z,1011.22
2016-07-23T00:46:43.060Z,1011.19
2016-07-23T00:47:15.208Z,1011.19
2016-07-23T00:47:45.231Z,1011.19
2016-07-23T00:48:15.237Z,1011.2
2016-07-23T00:48:45.257Z,1011.19
2016-07-23T00:49:15.260Z,1011.18
2016-07-23T00:49:45.279Z,1011.16
2016-07-23T00:50:15.296Z,1011.19
2016-07-23T00:50:45.308Z,1011.18
2016-07-23T00:51:14.610Z,1011.14
2016-07-23T00:51:44.645Z,1011.19
2016-07-23T00:52:15.358Z,1011.17
2016-07-23T00:52:44.683Z,1011.2
2016-07-23T00:53:15.380Z,1011.17
2016-07-23T00:53:45.402Z,1011.19
2016-07-23T00:54:14.708Z,1011.21
2016-07-23T00:54:45.444Z,1011.19
2016-07-23T00:55:15.458Z,1011.14
2016-07-23T00:55:45.470Z,1011.16
2016-07-23T00:56:15.476Z,1011.18
2016-07-23T00:56:45.506Z,1011.21
2016-07-23T00:57:14.091Z,1011.21
2016-07-23T00:57:45.518Z,1011.21
2016-07-23T00:58:15.530Z,1011.2
2016-07-23T00:58:45.564Z,1011.22
2016-07-23T00:59:15.583Z,1011.19
2016-07-23T00:59:44.869Z,1011.19
2016-07-23T01:00:15.604Z,1011.19
2016-07-23T01:00:45.622Z,1011.19
2016-07-23T01:01:15.629Z,1011.2
2016-07-23T01:01:44.946Z,1011.2
2016-07-23T01:02:15.657Z,1011.21
2016-07-23T01:02:45.673Z,1011.19
2016-07-23T01:03:15.701Z,1011.19
2016-07-23T01:03:45.715Z,1011.16
2016-07-23T01:04:15.719Z,1011.19
2016-07-23T01:04:45.031Z,1011.18
2016-07-23T01:05:15.044Z,1011.16
2016-07-23T01:05:45.071Z,1011.14
2016-07-23T01:06:15.789Z,1011.13
2016-07-23T01:06:45.803Z,1011.19
2016-07-23T01:07:15.814Z,1011.16
2016-07-23T01:07:45.827Z,1011.14
2016-07-23T01:08:15.156Z,1011.12
2016-07-23T01:08:45.160Z,1011.13
2016-07-23T01:09:15.870Z,1011.09
2016-07-23T01:09:45.190Z,1011.11
2016-07-23T01:10:15.912Z,1011.09
2016-07-23T01:10:45.928Z,1011.09
2016-07-23T01:11:15.235Z,1011.03
2016-07-23T01:11:45.961Z,1011.06
2016-07-23T01:12:15.258Z,1011.04
2016-07-23T01:12:45.270Z,1011.05
2016-07-23T01:13:16.008Z,1011.02
2016-07-23T01:13:46.033Z,1011.01
2016-07-23T01:14:16.031Z,1010.99
2016-07-23T01:14:46.050Z,1011
2016-07-23T01:15:16.064Z,1011
2016-07-23T01:15:45.371Z,1011
2016-07-23T01:16:15.378Z,1011
2016-07-23T01:16:46.109Z,1010.97
2016-07-23T01:17:16.126Z,1010.98
2016-07-23T01:17:46.137Z,1011
2016-07-23T01:18:16.159Z,1011
2016-07-23T01:18:46.170Z,1010.99
2016-07-23T01:19:16.181Z,1010.98
2016-07-23T01:19:45.497Z,1010.99
2016-07-23T01:20:16.232Z,1010.97
2016-07-23T01:20:46.231Z,1010.99
2016-07-23T01:21:16.248Z,1010.99
2016-07-23T01:21:46.275Z,1011.01
2016-07-23T01:22:15.570Z,1011.02
2016-07-23T01:22:46.288Z,1010.99
2016-07-23T01:23:16.314Z,1011.04
2016-07-23T01:23:46.321Z,1011.02
2016-07-23T01:24:16.348Z,1011.04
2016-07-23T01:24:46.347Z,1011.02
2016-07-23T01:25:15.660Z,1011.05
2016-07-23T01:25:46.385Z,1011.06
2016-07-23T01:26:16.398Z,1011.06
2016-07-23T01:26:46.408Z,1011.08
2016-07-23T01:27:16.440Z,1011.08
2016-07-23T01:27:46.444Z,1011.08
2016-07-23T01:28:16.477Z,1011.06
2016-07-23T01:28:46.483Z,1011.1
2016-07-23T01:29:15.779Z,1011.07
2016-07-23T01:29:46.501Z,1011.08
2016-07-23T01:30:16.522Z,1011.07
2016-07-23T01:30:46.545Z,1011.05
2016-07-23T01:31:16.559Z,1011.06
2016-07-23T01:31:46.571Z,1011.05
2016-07-23T01:32:16.581Z,1011.03
2016-07-23T01:32:45.192Z,1011.07
2016-07-23T01:33:16.618Z,1011.05
2016-07-23T01:33:46.640Z,1011.06
2016-07-23T01:34:16.650Z,1011.06
2016-07-23T01:34:46.661Z,1011.04
2016-07-23T01:35:16.678Z,1011.03
2016-07-23T01:35:45.989Z,1011.03
2016-07-23T01:36:16.701Z,1011.05
2016-07-23T01:36:46.721Z,1011.07
2016-07-23T01:37:16.736Z,1011.05
2016-07-23T01:37:46.752Z,1011.01
2016-07-23T01:38:16.063Z,1011.07
2016-07-23T01:38:46.801Z,1011.06
2016-07-23T01:39:16.800Z,1011.07
2016-07-23T01:39:46.816Z,1011.06
2016-07-23T01:40:16.831Z,1011.03
2016-07-23T01:40:46.846Z,1011.08
2016-07-23T01:41:16.860Z,1011.06
2016-07-23T01:41:46.872Z,1011.09
2016-07-23T01:42:16.898Z,1011.05
2016-07-23T01:42:46.907Z,1011.06
2016-07-23T01:43:16.919Z,1011.07
2016-07-23T01:43:46.937Z,1011.02
2016-07-23T01:44:16.949Z,1011.04
2016-07-23T01:44:46.967Z,1011.04
2016-07-23T01:45:16.994Z,1011.03
2016-07-23T01:45:47.005Z,1011.02
2016-07-23T01:46:17.008Z,1011.02
2016-07-23T01:46:47.039Z,1011.05
2016-07-23T01:47:17.053Z,1011
2016-07-23T01:47:47.060Z,1011.02
2016-07-23T01:48:17.077Z,1011.02
2016-07-23T01:48:47.100Z,1011.05
2016-07-23T01:49:17.112Z,1011.04
2016-07-23T01:49:48.269Z,1011.03
2016-07-23T01:50:18.385Z,1011.06
2016-07-23T01:50:47.157Z,1011.04
2016-07-23T01:51:17.173Z,1011.06
2016-07-23T01:51:47.189Z,1011.04
2016-07-23T01:52:17.202Z,1011.03
2016-07-23T01:52:47.222Z,1011
2016-07-23T01:53:17.234Z,1011.04
2016-07-23T01:53:45.827Z,1011.02
2016-07-23T01:54:17.264Z,1011.04
2016-07-23T01:54:47.281Z,1011.03
2016-07-23T01:55:17.298Z,1011.06
2016-07-23T01:55:47.312Z,1011.05
2016-07-23T01:56:17.324Z,1011.02
2016-07-23T01:56:46.633Z,1011.05
2016-07-23T01:57:17.356Z,1011.06
2016-07-23T01:57:47.375Z,1011.06
2016-07-23T01:58:17.384Z,1011.02
2016-07-23T01:58:47.413Z,1011.04
2016-07-23T01:59:17.425Z,1011.04
2016-07-23T01:59:47.424Z,1011.02
2016-07-23T02:00:17.453Z,1011
2016-07-23T02:00:47.461Z,1011.01
2016-07-23T02:01:17.487Z,1011.01
2016-07-23T02:01:46.781Z,1011.04
2016-07-23T02:02:17.503Z,1011.02
2016-07-23T02:02:46.813Z,1011.04
2016-07-23T02:03:17.544Z,1011.03
2016-07-23T02:03:46.844Z,1011.02
2016-07-23T02:04:17.573Z,1011.03
2016-07-23T02:04:47.584Z,1011.02
2016-07-23T02:05:17.594Z,1011.01
2016-07-23T02:05:47.615Z,1010.96
2016-07-23T02:06:17.633Z,1010.99
2016-07-23T02:06:47.642Z,1010.98
2016-07-23T02:07:16.954Z,1010.96
2016-07-23T02:07:47.670Z,1011
2016-07-23T02:08:17.698Z,1011
2016-07-23T02:08:47.707Z,1010.98
2016-07-23T02:09:17.724Z,1010.97
2016-07-23T02:09:47.027Z,1010.99
2016-07-23T02:10:17.757Z,1011.01
2016-07-23T02:10:47.770Z,1010.99
2016-07-23T02:11:17.779Z,1010.99
2016-07-23T02:11:47.798Z,1010.99
2016-07-23T02:12:17.831Z,1010.98
2016-07-23T02:12:47.827Z,1011.01
2016-07-23T02:13:17.845Z,1011.01
2016-07-23T02:13:47.857Z,1011.04
2016-07-23T02:14:17.183Z,1011.03
2016-07-23T02:14:47.894Z,1011.02
2016-07-23T02:15:17.907Z,1011.03
2016-07-23T02:15:47.929Z,1011.03
2016-07-23T02:16:17.225Z,1011.04
2016-07-23T02:16:47.954Z,1011.05
2016-07-23T02:17:17.969Z,1011.06
2016-07-23T02:17:47.986Z,1011.04
2016-07-23T02:18:17.289Z,1011.04
2016-07-23T02:18:48.015Z,1011.05
2016-07-23T02:19:17.334Z,1011.05
2016-07-23T02:19:48.044Z,1011.07
2016-07-23T02:20:18.057Z,1011.02
2016-07-23T02:20:48.079Z,1011.05
2016-07-23T02:21:18.094Z,1011.06
2016-07-23T02:21:47.389Z,1011.05
2016-07-23T02:22:18.128Z,1011.08
2016-07-23T02:22:48.164Z,1011.02
2016-07-23T02:23:18.151Z,1011.03
2016-07-23T02:23:48.166Z,1011.03
2016-07-23T02:24:18.183Z,1011
2016-07-23T02:24:48.204Z,1011
2016-07-23T02:25:18.210Z,1011.01
2016-07-23T02:25:48.230Z,1011.03
2016-07-23T02:26:18.254Z,1011.05
2016-07-23T02:26:48.258Z,1011.01
2016-07-23T02:27:18.277Z,1011
2016-07-23T02:27:48.292Z,1011
2016-07-23T02:28:18.301Z,1011.01
2016-07-23T02:28:47.613Z,1011.02
2016-07-23T02:29:18.334Z,1010.97
2016-07-23T02:29:48.350Z,1010.98
2016-07-23T02:30:18.363Z,1010.99
2016-07-23T02:30:48.386Z,1010.99
2016-07-23T02:31:18.403Z,1010.98
2016-07-23T02:31:48.410Z,1010.97
2016-07-23T02:32:18.427Z,1010.96
2016-07-23T02:32:48.453Z,1011
2016-07-23T02:33:18.452Z,1010.93
2016-07-23T02:33:48.472Z,1010.94
2016-07-23T02:34:18.486Z,1010.96
2016-07-23T02:34:48.502Z,1010.93
2016-07-23T02:35:18.533Z,1010.94
2016-07-23T02:35:48.534Z,1010.98
2016-07-23T02:36:18.567Z,1010.94
2016-07-23T02:36:48.561Z,1010.92
2016-07-23T02:37:18.588Z,1010.95
2016-07-23T02:37:48.603Z,1010.94
2016-07-23T02:38:18.607Z,1010.94
2016-07-23T02:38:48.633Z,1010.95
2016-07-23T02:39:17.929Z,1010.96
2016-07-23T02:39:48.661Z,1010.94
2016-07-23T02:40:17.976Z,1010.97
2016-07-23T02:40:48.685Z,1010.92
2016-07-23T02:41:18.701Z,1010.96
2016-07-23T02:41:48.006Z,1010.94
2016-07-23T02:42:18.747Z,1010.9
2016-07-23T02:42:48.753Z,1010.92
2016-07-23T02:43:18.765Z,1010.93
2016-07-23T02:43:48.784Z,1010.96
2016-07-23T02:44:18.813Z,1010.95
2016-07-23T02:44:48.098Z,1010.94
2016-07-23T02:45:18.840Z,1010.93
2016-07-23T02:45:48.842Z,1010.92
2016-07-23T02:46:18.855Z,1010.91
2016-07-23T02:46:48.880Z,1010.92
2016-07-23T02:47:18.896Z,1010.94
2016-07-23T02:47:48.904Z,1010.96
2016-07-23T02:48:18.209Z,1010.94
2016-07-23T02:48:48.937Z,1010.93
2016-07-23T02:49:18.950Z,1010.92
2016-07-23T02:49:48.963Z,1010.94
2016-07-23T02:50:18.980Z,1010.93
2016-07-23T02:50:48.993Z,1010.94
2016-07-23T02:51:19.005Z,1010.95
2016-07-23T02:51:49.023Z,1010.93
2016-07-23T02:52:19.046Z,1010.93
2016-07-23T02:52:49.054Z,1010.9
2016-07-23T02:53:19.064Z,1010.92
2016-07-23T02:53:49.083Z,1010.87
2016-07-23T02:54:19.118Z,1010.91
2016-07-23T02:54:48.406Z,1010.93
2016-07-23T02:55:19.142Z,1010.9
2016-07-23T02:55:49.155Z,1010.89
2016-07-23T02:56:19.163Z,1010.87
2016-07-23T02:56:49.171Z,1010.87
2016-07-23T02:57:19.185Z,1010.86
2016-07-23T02:57:49.203Z,1010.85
2016-07-23T02:58:18.515Z,1010.86
2016-07-23T02:58:48.524Z,1010.87
2016-07-23T02:59:19.252Z,1010.89
2016-07-23T02:59:49.262Z,1010.87
2016-07-23T03:00:19.288Z,1010.86
2016-07-23T03:00:48.586Z,1010.89
2016-07-23T03:01:19.304Z,1010.85
2016-07-23T03:01:49.327Z,1010.86
2016-07-23T03:02:19.342Z,1010.82
2016-07-23T03:02:49.366Z,1010.83
2016-07-23T03:03:19.374Z,1010.81
2016-07-23T03:03:48.692Z,1010.83
2016-07-23T03:04:19.411Z,1010.84
2016-07-23T03:04:49.423Z,1010.84
2016-07-23T03:05:19.446Z,1010.81
2016-07-23T03:05:49.459Z,1010.85
2016-07-23T03:06:19.470Z,1010.83
2016-07-23T03:06:49.492Z,1010.85
2016-07-23T03:07:19.503Z,1010.86
2016-07-23T03:07:48.800Z,1010.85
2016-07-23T03:08:19.524Z,1010.91
2016-07-23T03:08:48.836Z,1010.9
2016-07-23T03:09:19.564Z,1010.86
2016-07-23T03:09:48.865Z,1010.89
2016-07-23T03:10:18.171Z,1010.87
2016-07-23T03:10:49.607Z,1010.89
2016-07-23T03:11:19.622Z,1010.85
2016-07-23T03:11:48.935Z,1010.87
2016-07-23T03:12:19.648Z,1010.88
2016-07-23T03:12:48.966Z,1010.89
2016-07-23T03:13:19.673Z,1010.88
2016-07-23T03:13:48.990Z,1010.86
2016-07-23T03:14:19.005Z,1010.91
2016-07-23T03:14:49.725Z,1010.93
2016-07-23T03:15:18.322Z,1010.91
2016-07-23T03:15:49.762Z,1010.91
2016-07-23T03:16:19.775Z,1010.88
2016-07-23T03:16:49.788Z,1010.89
2016-07-23T03:17:19.802Z,1010.89
2016-07-23T03:17:49.114Z,1010.86
2016-07-23T03:18:19.832Z,1010.9
2016-07-23T03:18:49.851Z,1010.86
2016-07-23T03:19:19.869Z,1010.87
2016-07-23T03:19:49.878Z,1010.86
2016-07-23T03:20:19.181Z,1010.89
2016-07-23T03:20:49.911Z,1010.87
2016-07-23T03:21:19.924Z,1010.88
2016-07-23T03:21:49.942Z,1010.9
2016-07-23T03:22:19.955Z,1010.86
2016-07-23T03:22:49.972Z,1010.85
2016-07-23T03:23:19.982Z,1010.88
2016-07-23T03:23:49.284Z,1010.88
2016-07-23T03:24:20.015Z,1010.9
2016-07-23T03:24:50.052Z,1010.92
2016-07-23T03:25:19.341Z,1010.89
2016-07-23T03:25:50.068Z,1010.88
2016-07-23T03:26:20.081Z,1010.9
2016-07-23T03:26:50.091Z,1010.91
2016-07-23T03:27:20.118Z,1010.92
2016-07-23T03:27:50.122Z,1010.92
2016-07-23T03:28:20.130Z,1010.89
2016-07-23T03:28:50.156Z,1010.96
2016-07-23T03:29:20.169Z,1010.95
2016-07-23T03:29:49.475Z,1010.92
2016-07-23T03:30:19.485Z,1010.95
2016-07-23T03:30:50.218Z,1010.92
2016-07-23T03:31:20.227Z,1010.95
2016-07-23T03:31:50.244Z,1010.95
2016-07-23T03:32:19.555Z,1010.94
2016-07-23T03:32:50.288Z,1010.95
2016-07-23T03:33:19.582Z,1010.96
2016-07-23T03:33:50.300Z,1010.94
2016-07-23T03:34:20.318Z,1010.91
2016-07-23T03:34:50.345Z,1010.96
2016-07-23T03:35:19.638Z,1010.94
2016-07-23T03:35:50.379Z,1010.92
2016-07-23T03:36:20.376Z,1010.9
2016-07-23T03:36:49.681Z,1010.87
2016-07-23T03:37:19.702Z,1010.92
2016-07-23T03:37:49.713Z,1010.91
2016-07-23T03:38:19.028Z,1010.88
2016-07-23T03:38:50.477Z,1010.87
2016-07-23T03:39:20.477Z,1010.86
2016-07-23T03:39:50.484Z,1010.89
2016-07-23T03:40:19.800Z,1010.88
2016-07-23T03:40:50.537Z,1010.85
2016-07-23T03:41:20.537Z,1010.85
2016-07-23T03:41:50.549Z,1010.83
2016-07-23T03:42:20.570Z,1010.8
2016-07-23T03:42:50.578Z,1010.83
2016-07-23T03:43:20.590Z,1010.86
2016-07-23T03:43:50.602Z,1010.88
2016-07-23T03:44:19.919Z,1010.86
2016-07-23T03:44:50.637Z,1010.84
2016-07-23T03:45:19.950Z,1010.8
2016-07-23T03:45:50.674Z,1010.82
2016-07-23T03:46:20.686Z,1010.8
2016-07-23T03:46:50.701Z,1010.81
2016-07-23T03:47:20.722Z,1010.82
2016-07-23T03:47:50.027Z,1010.82
2016-07-23T03:48:20.748Z,1010.82
2016-07-23T03:48:50.764Z,1010.8
2016-07-23T03:49:20.784Z,1010.81
2016-07-23T03:49:50.088Z,1010.82
2016-07-23T03:50:20.807Z,1010.77
2016-07-23T03:50:50.826Z,1010.8
2016-07-23T03:51:20.859Z,1010.8
2016-07-23T03:51:50.855Z,1010.79
2016-07-23T03:52:20.169Z,1010.81
2016-07-23T03:52:50.901Z,1010.77
2016-07-23T03:53:20.905Z,1010.81
2016-07-23T03:53:50.920Z,1010.81
2016-07-23T03:54:20.935Z,1010.8
2016-07-23T03:54:50.954Z,1010.79
2016-07-23T03:55:20.959Z,1010.82
2016-07-23T03:55:50.987Z,1010.81
2016-07-23T03:56:20.994Z,1010.81
2016-07-23T03:56:50.292Z,1010.81
2016-07-23T03:57:21.023Z,1010.79
2016-07-23T03:57:51.048Z,1010.82
2016-07-23T03:58:21.056Z,1010.84
2016-07-23T03:58:51.076Z,1010.8
2016-07-23T03:59:20.389Z,1010.83
2016-07-23T03:59:50.387Z,1010.84
2016-07-23T04:00:21.108Z,1010.86
2016-07-23T04:00:51.123Z,1010.85
2016-07-23T04:01:21.143Z,1010.83
2016-07-23T04:01:49.748Z,1010.87
2016-07-23T04:02:21.174Z,1010.85
2016-07-23T04:02:51.195Z,1010.86
2016-07-23T04:03:21.208Z,1010.86
2016-07-23T04:03:50.512Z,1010.85
2016-07-23T04:04:20.520Z,1010.83
2016-07-23T04:04:50.541Z,1010.85
2016-07-23T04:05:20.559Z,1010.84
2016-07-23T04:05:51.279Z,1010.83
2016-07-23T04:06:21.304Z,1010.83
2016-07-23T04:06:51.310Z,1010.86
2016-07-23T04:07:21.323Z,1010.86
2016-07-23T04:07:51.340Z,1010.88
2016-07-23T04:08:20.641Z,1010.87
2016-07-23T04:08:50.666Z,1010.88
2016-07-23T04:09:21.391Z,1010.89
2016-07-23T04:09:51.400Z,1010.9
2016-07-23T04:10:21.432Z,1010.93
2016-07-23T04:10:50.725Z,1010.89
2016-07-23T04:11:20.745Z,1010.93
2016-07-23T04:11:51.470Z,1010.9
2016-07-23T04:12:21.481Z,1010.92
2016-07-23T04:12:51.501Z,1010.9
2016-07-23T04:13:21.506Z,1010.92
2016-07-23T04:13:51.528Z,1010.94
2016-07-23T04:14:21.538Z,1010.91
2016-07-23T04:14:51.558Z,1010.94
2016-07-23T04:15:21.576Z,1010.93
2016-07-23T04:15:50.903Z,1011
2016-07-23T04:16:21.596Z,1010.97
2016-07-23T04:16:51.616Z,1011.01
2016-07-23T04:17:21.629Z,1011.04
2016-07-23T04:17:50.936Z,1011.02
2016-07-23T04:18:21.667Z,1011.01
2016-07-23T04:18:51.680Z,1011.06
2016-07-23T04:19:21.699Z,1011.09
2016-07-23T04:19:51.710Z,1011.12
2016-07-23T04:20:21.737Z,1011.09
2016-07-23T04:20:51.040Z,1011.13
2016-07-23T04:21:21.750Z,1011.13
2016-07-23T04:21:51.061Z,1011.1
2016-07-23T04:22:21.787Z,1011.13
2016-07-23T04:22:51.812Z,1011.14
2016-07-23T04:23:21.822Z,1011.1
2016-07-23T04:23:51.132Z,1011.08
2016-07-23T04:24:21.848Z,1011.1
2016-07-23T04:24:51.860Z,1011.11
2016-07-23T04:25:21.880Z,1011.12
2016-07-23T04:25:51.904Z,1011.12
2016-07-23T04:26:21.899Z,1011.15
2016-07-23T04:26:51.928Z,1011.11
2016-07-23T04:27:21.939Z,1011.15
2016-07-23T04:27:51.960Z,1011.12
2016-07-23T04:28:21.259Z,1011.12
2016-07-23T04:28:51.274Z,1011.11
2016-07-23T04:29:21.997Z,1011.11
2016-07-23T04:29:52.006Z,1011.11
2016-07-23T04:30:22.027Z,1011.12
2016-07-23T04:30:52.062Z,1011.1
2016-07-23T04:31:22.051Z,1011.13
2016-07-23T04:31:52.075Z,1011.19
2016-07-23T04:32:22.101Z,1011.17
2016-07-23T04:32:51.399Z,1011.16
2016-07-23T04:33:22.115Z,1011.16
2016-07-23T04:33:52.148Z,1011.16
2016-07-23T04:34:22.156Z,1011.17
2016-07-23T04:34:52.168Z,1011.21
2016-07-23T04:35:22.191Z,1011.18
2016-07-23T04:35:52.193Z,1011.18
2016-07-23T04:36:22.205Z,1011.17
2016-07-23T04:36:52.229Z,1011.19
2016-07-23T04:37:21.535Z,1011.16
2016-07-23T04:37:52.261Z,1011.18
2016-07-23T04:38:22.273Z,1011.18
2016-07-23T04:38:52.307Z,1011.21
2016-07-23T04:39:22.308Z,1011.22
2016-07-23T04:39:52.318Z,1011.19
2016-07-23T04:40:22.334Z,1011.19
2016-07-23T04:40:52.362Z,1011.18
2016-07-23T04:41:21.656Z,1011.2
2016-07-23T04:41:52.378Z,1011.22
2016-07-23T04:42:22.403Z,1011.2
2016-07-23T04:42:51.710Z,1011.22
2016-07-23T04:43:22.427Z,1011.2
2016-07-23T04:43:52.444Z,1011.2
2016-07-23T04:44:22.466Z,1011.2
2016-07-23T04:44:52.473Z,1011.19
2016-07-23T04:45:22.495Z,1011.21
2016-07-23T04:45:52.507Z,1011.16
2016-07-23T04:46:22.522Z,1011.2
2016-07-23T04:46:52.555Z,1011.2
2016-07-23T04:47:22.570Z,1011.18
2016-07-23T04:47:52.567Z,1011.19
2016-07-23T04:48:22.591Z,1011.18
2016-07-23T04:48:52.592Z,1011.18
2016-07-23T04:49:21.919Z,1011.17
2016-07-23T04:49:52.629Z,1011.18
2016-07-23T04:50:22.640Z,1011.19
2016-07-23T04:50:52.664Z,1011.17
2016-07-23T04:51:22.681Z,1011.18
2016-07-23T04:51:52.696Z,1011.17
2016-07-23T04:52:22.702Z,1011.19
2016-07-23T04:52:52.015Z,1011.19
2016-07-23T04:53:22.742Z,1011.16
2016-07-23T04:53:52.035Z,1011.21
2016-07-23T04:54:22.768Z,1011.15
2016-07-23T04:54:52.077Z,1011.13
2016-07-23T04:55:22.799Z,1011.12
2016-07-23T04:55:52.809Z,1011.16
2016-07-23T04:56:22.826Z,1011.11
2016-07-23T04:56:52.852Z,1011.09
2016-07-23T04:57:22.858Z,1011.09
2016-07-23T04:57:52.873Z,1011.12
2016-07-23T04:58:22.187Z,1011.06
2016-07-23T04:58:52.899Z,1011.06
2016-07-23T04:59:22.222Z,1011.11
2016-07-23T04:59:52.943Z,1011.06
2016-07-23T05:00:22.950Z,1011.06
2016-07-23T05:00:52.271Z,1011.09
2016-07-23T05:01:22.992Z,1011.09
2016-07-23T05:01:52.295Z,1011.08
2016-07-23T05:02:23.006Z,1011.1
2016-07-23T05:02:53.041Z,1011.11
2016-07-23T05:03:23.050Z,1011.11
2016-07-23T05:03:53.070Z,1011.1
2016-07-23T05:04:23.080Z,1011.07
2016-07-23T05:04:53.099Z,1011.1
2016-07-23T05:05:23.111Z,1011.1
2016-07-23T05:05:53.125Z,1011.09
2016-07-23T05:06:22.432Z,1011.1
2016-07-23T05:06:53.162Z,1011.11
2016-07-23T05:07:23.170Z,1011.08
2016-07-23T05:07:53.187Z,1011.1
2016-07-23T05:08:23.207Z,1011.1
2016-07-23T05:08:51.800Z,1011.08
2016-07-23T05:09:23.236Z,1011.07
2016-07-23T05:09:53.242Z,1011.09
2016-07-23T05:10:23.258Z,1011.09
2016-07-23T05:10:53.276Z,1011.04
2016-07-23T05:11:23.290Z,1011.04
2016-07-23T05:11:53.319Z,1011.07
2016-07-23T05:12:21.904Z,1011.09
2016-07-23T05:12:53.358Z,1011.09
2016-07-23T05:13:23.353Z,1011.11
2016-07-23T05:13:53.373Z,1011.11
2016-07-23T05:14:23.382Z,1011.12
2016-07-23T05:14:53.410Z,1011.15
2016-07-23T05:15:22.702Z,1011.15
2016-07-23T05:15:53.441Z,1011.18
2016-07-23T05:16:23.459Z,1011.16
2016-07-23T05:16:53.469Z,1011.18
2016-07-23T05:17:22.770Z,1011.21
2016-07-23T05:17:52.785Z,1011.2
2016-07-23T05:18:23.509Z,1011.19
2016-07-23T05:18:53.529Z,1011.22
2016-07-23T05:19:23.547Z,1011.21
2016-07-23T05:19:53.558Z,1011.24
2016-07-23T05:20:23.583Z,1011.23
2016-07-23T05:20:53.595Z,1011.19
2016-07-23T05:21:23.607Z,1011.21
2016-07-23T05:21:53.620Z,1011.22
2016-07-23T05:22:23.644Z,1011.21
2016-07-23T05:22:53.650Z,1011.22
2016-07-23T05:23:23.681Z,1011.2
2016-07-23T05:23:53.683Z,1011.22
2016-07-23T05:24:23.702Z,1011.2
2016-07-23T05:24:53.726Z,1011.2
2016-07-23T05:25:23.745Z,1011.17
2016-07-23T05:25:53.743Z,1011.14
2016-07-23T05:26:23.757Z,1011.13
2016-07-23T05:26:53.789Z,1011.18
2016-07-23T05:27:23.085Z,1011.17
2016-07-23T05:27:53.800Z,1011.2
2016-07-23T05:28:23.842Z,1011.19
2016-07-23T05:28:53.851Z,1011.23
2016-07-23T05:29:23.851Z,1011.2
2016-07-23T05:29:53.874Z,1011.24
2016-07-23T05:30:23.184Z,1011.26
2016-07-23T05:30:53.913Z,1011.26
2016-07-23T05:31:23.913Z,1011.26
2016-07-23T05:31:53.245Z,1011.29
2016-07-23T05:32:23.950Z,1011.29
2016-07-23T05:32:53.972Z,1011.27
2016-07-23T05:33:23.971Z,1011.33
2016-07-23T05:33:53.296Z,1011.31
2016-07-23T05:34:24.016Z,1011.32
2016-07-23T05:34:54.040Z,1011.34
2016-07-23T05:35:24.077Z,1011.34
2016-07-23T05:35:53.349Z,1011.33
2016-07-23T05:36:23.367Z,1011.32
2016-07-23T05:36:53.401Z,1011.32
2016-07-23T05:37:24.112Z,1011.34
2016-07-23T05:37:54.133Z,1011.36
2016-07-23T05:38:23.431Z,1011.37
2016-07-23T05:38:54.161Z,1011.37
2016-07-23T05:39:24.171Z,1011.39
2016-07-23T05:39:54.180Z,1011.37
2016-07-23T05:40:24.206Z,1011.38
2016-07-23T05:40:54.237Z,1011.41
2016-07-23T05:41:23.544Z,1011.43
2016-07-23T05:41:54.250Z,1011.43
2016-07-23T05:42:24.267Z,1011.37
2016-07-23T05:42:53.574Z,1011.43
2016-07-23T05:43:24.311Z,1011.44
2016-07-23T05:43:54.311Z,1011.39
2016-07-23T05:44:24.322Z,1011.43
2016-07-23T05:44:54.350Z,1011.4
2016-07-23T05:45:24.355Z,1011.41
2016-07-23T05:45:54.371Z,1011.41
2016-07-23T05:46:24.388Z,1011.44
2016-07-23T05:46:54.413Z,1011.44
2016-07-23T05:47:24.424Z,1011.44
2016-07-23T05:47:54.429Z,1011.42
2016-07-23T05:48:23.738Z,1011.43
2016-07-23T05:48:53.755Z,1011.45
2016-07-23T05:49:24.494Z,1011.47
2016-07-23T05:49:54.511Z,1011.47
2016-07-23T05:50:24.520Z,1011.46
2016-07-23T05:50:54.534Z,1011.44
2016-07-23T05:51:24.558Z,1011.47
2016-07-23T05:51:54.568Z,1011.53
2016-07-23T05:52:23.862Z,1011.48
2016-07-23T05:52:53.889Z,1011.47
2016-07-23T05:53:24.607Z,1011.49
2016-07-23T05:53:54.631Z,1011.46
2016-07-23T05:54:24.642Z,1011.52
2016-07-23T05:54:53.245Z,1011.48
2016-07-23T05:55:24.669Z,1011.48
2016-07-23T05:55:54.696Z,1011.48
2016-07-23T05:56:24.704Z,1011.51
2016-07-23T05:56:54.736Z,1011.5
2016-07-23T05:57:24.024Z,1011.51
2016-07-23T05:57:54.755Z,1011.51
2016-07-23T05:58:24.765Z,1011.5
2016-07-23T05:58:54.791Z,1011.5
2016-07-23T05:59:24.094Z,1011.52
2016-07-23T05:59:54.825Z,1011.53
2016-07-23T06:00:24.839Z,1011.54
2016-07-23T06:00:54.869Z,1011.54
2016-07-23T06:01:24.872Z,1011.54
2016-07-23T06:01:54.882Z,1011.55
2016-07-23T06:02:24.892Z,1011.53
2016-07-23T06:02:54.921Z,1011.52
2016-07-23T06:03:23.516Z,1011.53
2016-07-23T06:03:54.951Z,1011.51
2016-07-23T06:04:24.957Z,1011.55
2016-07-23T06:04:54.270Z,1011.54